sensor_id;sensor_type;location;lat;lon;timestamp;P1;durP1;ratioP1;P2;durP2;ratioP2
58152;SDS011;43967;51.634;5.566;2022-09-09T00:06:43;6.03;;;1.40;;
58152;SDS011;43967;51.634;5.566;2022-09-09T00:11:52;5.57;;;1.50;;
58152;SDS011;43967;51.634;5.566;2022-09-09T00:22:36;5.23;;;1.20;;
58152;SDS011;43967;51.634;5.566;2022-09-09T00:27:41;5.78;;;1.70;;
58152;SDS011;43967;51.634;5.566;2022-09-09T00:32:46;5.70;;;1.45;;
58152;SDS011;43967;51.634;5.566;2022-09-09T00:37:49;5.93;;;1.53;;
58152;SDS011;43967;51.634;5.566;2022-09-09T00:48:13;5.15;;;1.15;;
58152;SDS011;43967;51.634;5.566;2022-09-09T00:53:24;4.33;;;1.00;;
58152;SDS011;43967;51.634;5.566;2022-09-09T00:58:33;5.27;;;1.30;;
58152;SDS011;43967;51.634;5.566;2022-09-09T01:03:35;4.82;;;1.33;;
58152;SDS011;43967;51.634;5.566;2022-09-09T01:30:22;4.23;;;1.10;;
58152;SDS011;43967;51.634;5.566;2022-09-09T01:40:30;4.18;;;1.08;;
58152;SDS011;43967;51.634;5.566;2022-09-09T01:45:32;5.50;;;1.43;;
58152;SDS011;43967;51.634;5.566;2022-09-09T01:50:34;4.17;;;1.10;;
58152;SDS011;43967;51.634;5.566;2022-09-09T01:55:39;4.65;;;1.15;;
58152;SDS011;43967;51.634;5.566;2022-09-09T02:06:34;4.43;;;1.03;;
58152;SDS011;43967;51.634;5.566;2022-09-09T02:12:05;6.45;;;1.58;;
58152;SDS011;43967;51.634;5.566;2022-09-09T02:17:20;3.92;;;0.98;;
58152;SDS011;43967;51.634;5.566;2022-09-09T02:22:36;4.53;;;1.23;;
58152;SDS011;43967;51.634;5.566;2022-09-09T02:27:40;4.07;;;1.10;;
58152;SDS011;43967;51.634;5.566;2022-09-09T02:32:46;4.15;;;0.95;;
58152;SDS011;43967;51.634;5.566;2022-09-09T02:37:52;4.90;;;1.27;;
58152;SDS011;43967;51.634;5.566;2022-09-09T02:42:58;6.00;;;1.40;;
58152;SDS011;43967;51.634;5.566;2022-09-09T02:48:13;4.45;;;1.02;;
58152;SDS011;43967;51.634;5.566;2022-09-09T02:53:26;4.63;;;1.20;;
58152;SDS011;43967;51.634;5.566;2022-09-09T02:58:37;4.43;;;1.27;;
58152;SDS011;43967;51.634;5.566;2022-09-09T03:03:40;3.40;;;1.10;;
58152;SDS011;43967;51.634;5.566;2022-09-09T03:08:46;5.00;;;1.13;;
58152;SDS011;43967;51.634;5.566;2022-09-09T03:13:47;5.53;;;1.10;;
58152;SDS011;43967;51.634;5.566;2022-09-09T03:18:48;3.25;;;0.77;;
58152;SDS011;43967;51.634;5.566;2022-09-09T03:23:49;3.90;;;1.10;;
58152;SDS011;43967;51.634;5.566;2022-09-09T03:28:51;4.17;;;1.20;;
58152;SDS011;43967;51.634;5.566;2022-09-09T03:33:53;4.30;;;1.33;;
58152;SDS011;43967;51.634;5.566;2022-09-09T03:38:55;3.70;;;1.10;;
58152;SDS011;43967;51.634;5.566;2022-09-09T03:43:59;4.20;;;1.13;;
58152;SDS011;43967;51.634;5.566;2022-09-09T03:49:03;3.37;;;0.80;;
58152;SDS011;43967;51.634;5.566;2022-09-09T03:54:06;3.28;;;1.02;;
58152;SDS011;43967;51.634;5.566;2022-09-09T03:59:08;5.18;;;1.23;;
58152;SDS011;43967;51.634;5.566;2022-09-09T04:04:09;4.20;;;1.00;;
58152;SDS011;43967;51.634;5.566;2022-09-09T04:09:11;5.10;;;1.27;;
58152;SDS011;43967;51.634;5.566;2022-09-09T04:14:12;4.43;;;1.05;;
58152;SDS011;43967;51.634;5.566;2022-09-09T04:19:13;4.17;;;1.23;;
58152;SDS011;43967;51.634;5.566;2022-09-09T04:24:16;4.70;;;1.13;;
58152;SDS011;43967;51.634;5.566;2022-09-09T04:29:17;3.60;;;1.00;;
58152;SDS011;43967;51.634;5.566;2022-09-09T04:34:18;4.22;;;1.00;;
58152;SDS011;43967;51.634;5.566;2022-09-09T04:39:19;4.40;;;1.00;;
58152;SDS011;43967;51.634;5.566;2022-09-09T04:44:20;4.50;;;1.17;;
58152;SDS011;43967;51.634;5.566;2022-09-09T04:49:22;4.13;;;1.08;;
58152;SDS011;43967;51.634;5.566;2022-09-09T04:54:23;4.10;;;1.10;;
58152;SDS011;43967;51.634;5.566;2022-09-09T04:59:25;3.75;;;0.90;;
58152;SDS011;43967;51.634;5.566;2022-09-09T05:04:30;6.20;;;1.50;;
58152;SDS011;43967;51.634;5.566;2022-09-09T05:09:32;7.30;;;1.70;;
58152;SDS011;43967;51.634;5.566;2022-09-09T05:14:35;6.87;;;1.93;;
58152;SDS011;43967;51.634;5.566;2022-09-09T05:19:36;7.30;;;1.80;;
58152;SDS011;43967;51.634;5.566;2022-09-09T05:24:37;6.07;;;2.15;;
58152;SDS011;43967;51.634;5.566;2022-09-09T05:29:39;8.63;;;1.80;;
58152;SDS011;43967;51.634;5.566;2022-09-09T05:34:42;8.25;;;1.88;;
58152;SDS011;43967;51.634;5.566;2022-09-09T05:39:43;7.55;;;2.00;;
58152;SDS011;43967;51.634;5.566;2022-09-09T05:44:45;7.53;;;1.87;;
58152;SDS011;43967;51.634;5.566;2022-09-09T05:49:47;7.55;;;1.80;;
58152;SDS011;43967;51.634;5.566;2022-09-09T05:54:48;7.00;;;1.88;;
58152;SDS011;43967;51.634;5.566;2022-09-09T05:59:49;8.60;;;2.00;;
58152;SDS011;43967;51.634;5.566;2022-09-09T06:04:50;10.60;;;2.00;;
58152;SDS011;43967;51.634;5.566;2022-09-09T06:09:51;6.65;;;1.77;;
58152;SDS011;43967;51.634;5.566;2022-09-09T06:14:52;11.27;;;1.92;;
58152;SDS011;43967;51.634;5.566;2022-09-09T06:19:54;8.43;;;2.00;;
58152;SDS011;43967;51.634;5.566;2022-09-09T06:24:55;8.63;;;1.80;;
58152;SDS011;43967;51.634;5.566;2022-09-09T06:29:56;8.93;;;2.20;;
58152;SDS011;43967;51.634;5.566;2022-09-09T06:34:57;8.77;;;2.07;;
58152;SDS011;43967;51.634;5.566;2022-09-09T06:39:59;9.45;;;1.70;;
58152;SDS011;43967;51.634;5.566;2022-09-09T06:45:00;8.82;;;1.90;;
58152;SDS011;43967;51.634;5.566;2022-09-09T06:50:09;8.93;;;2.20;;
58152;SDS011;43967;51.634;5.566;2022-09-09T06:55:12;8.53;;;1.80;;
58152;SDS011;43967;51.634;5.566;2022-09-09T07:00:13;8.18;;;2.17;;
58152;SDS011;43967;51.634;5.566;2022-09-09T07:05:18;8.85;;;1.92;;
58152;SDS011;43967;51.634;5.566;2022-09-09T07:10:20;9.10;;;2.00;;
58152;SDS011;43967;51.634;5.566;2022-09-09T07:15:21;10.35;;;2.22;;
58152;SDS011;43967;51.634;5.566;2022-09-09T07:20:23;8.43;;;2.10;;
58152;SDS011;43967;51.634;5.566;2022-09-09T07:25:25;10.00;;;2.07;;
58152;SDS011;43967;51.634;5.566;2022-09-09T07:30:26;8.77;;;2.00;;
58152;SDS011;43967;51.634;5.566;2022-09-09T08:51:32;9.07;;;2.03;;
58152;SDS011;43967;51.634;5.566;2022-09-09T08:56:35;7.17;;;2.00;;
58152;SDS011;43967;51.634;5.566;2022-09-09T09:12:36;7.20;;;2.03;;
58152;SDS011;43967;51.634;5.566;2022-09-09T09:17:42;7.82;;;1.63;;
58152;SDS011;43967;51.634;5.566;2022-09-09T09:22:46;7.18;;;1.60;;
58152;SDS011;43967;51.634;5.566;2022-09-09T09:28:02;8.03;;;1.70;;
58152;SDS011;43967;51.634;5.566;2022-09-09T09:33:18;8.90;;;1.50;;
58152;SDS011;43967;51.634;5.566;2022-09-09T09:38:38;12.23;;;2.05;;
58152;SDS011;43967;51.634;5.566;2022-09-09T09:43:40;11.57;;;2.17;;
58152;SDS011;43967;51.634;5.566;2022-09-09T09:54:07;9.23;;;2.10;;
58152;SDS011;43967;51.634;5.566;2022-09-09T09:59:20;7.85;;;1.80;;
58152;SDS011;43967;51.634;5.566;2022-09-09T10:04:33;9.73;;;2.00;;
58152;SDS011;43967;51.634;5.566;2022-09-09T10:09:35;9.30;;;1.60;;
58152;SDS011;43967;51.634;5.566;2022-09-09T10:14:39;6.40;;;1.70;;
58152;SDS011;43967;51.634;5.566;2022-09-09T10:20:31;7.93;;;1.70;;
58152;SDS011;43967;51.634;5.566;2022-09-09T10:25:37;6.60;;;1.73;;
58152;SDS011;43967;51.634;5.566;2022-09-09T10:31:19;7.47;;;1.90;;
58152;SDS011;43967;51.634;5.566;2022-09-09T10:36:27;9.18;;;1.60;;
58152;SDS011;43967;51.634;5.566;2022-09-09T10:57:45;6.83;;;1.70;;
58152;SDS011;43967;51.634;5.566;2022-09-09T11:13:23;8.50;;;1.73;;
58152;SDS011;43967;51.634;5.566;2022-09-09T11:34:39;5.50;;;1.20;;
58152;SDS011;43967;51.634;5.566;2022-09-09T11:40:16;5.50;;;1.50;;
58152;SDS011;43967;51.634;5.566;2022-09-09T11:45:25;5.95;;;1.40;;
58152;SDS011;43967;51.634;5.566;2022-09-09T11:50:31;7.37;;;1.80;;
58152;SDS011;43967;51.634;5.566;2022-09-09T11:55:36;6.15;;;1.30;;
58152;SDS011;43967;51.634;5.566;2022-09-09T12:00:47;9.10;;;1.70;;
58152;SDS011;43967;51.634;5.566;2022-09-09T12:11:28;9.40;;;1.90;;
58152;SDS011;43967;51.634;5.566;2022-09-09T12:16:34;6.72;;;1.85;;
58152;SDS011;43967;51.634;5.566;2022-09-09T12:21:56;8.25;;;1.92;;
58152;SDS011;43967;51.634;5.566;2022-09-09T12:32:09;7.22;;;1.40;;
58152;SDS011;43967;51.634;5.566;2022-09-09T12:42:39;8.17;;;2.17;;
58152;SDS011;43967;51.634;5.566;2022-09-09T13:09:01;7.78;;;1.98;;
58152;SDS011;43967;51.634;5.566;2022-09-09T13:14:03;7.05;;;1.70;;
58152;SDS011;43967;51.634;5.566;2022-09-09T13:19:08;6.47;;;2.00;;
58152;SDS011;43967;51.634;5.566;2022-09-09T13:24:27;7.90;;;1.70;;
58152;SDS011;43967;51.634;5.566;2022-09-09T13:29:31;5.65;;;1.45;;
58152;SDS011;43967;51.634;5.566;2022-09-09T13:34:33;7.20;;;1.50;;
58152;SDS011;43967;51.634;5.566;2022-09-09T13:44:53;5.90;;;1.45;;
58152;SDS011;43967;51.634;5.566;2022-09-09T13:49:56;7.03;;;1.63;;
58152;SDS011;43967;51.634;5.566;2022-09-09T13:54:57;6.20;;;1.50;;
58152;SDS011;43967;51.634;5.566;2022-09-09T13:59:58;7.30;;;1.58;;
58152;SDS011;43967;51.634;5.566;2022-09-09T14:04:59;7.45;;;1.70;;
58152;SDS011;43967;51.634;5.566;2022-09-09T14:10:00;7.87;;;1.80;;
58152;SDS011;43967;51.634;5.566;2022-09-09T14:15:04;7.43;;;1.70;;
58152;SDS011;43967;51.634;5.566;2022-09-09T14:20:07;7.18;;;1.67;;
58152;SDS011;43967;51.634;5.566;2022-09-09T14:25:09;7.00;;;1.40;;
58152;SDS011;43967;51.634;5.566;2022-09-09T14:30:10;6.25;;;1.40;;
58152;SDS011;43967;51.634;5.566;2022-09-09T14:35:11;5.82;;;1.40;;
58152;SDS011;43967;51.634;5.566;2022-09-09T14:40:12;6.10;;;1.53;;
58152;SDS011;43967;51.634;5.566;2022-09-09T14:45:13;5.87;;;1.57;;
58152;SDS011;43967;51.634;5.566;2022-09-09T14:50:15;7.13;;;1.83;;
58152;SDS011;43967;51.634;5.566;2022-09-09T15:49:14;7.07;;;1.52;;
58152;SDS011;43967;51.634;5.566;2022-09-09T15:54:24;7.17;;;1.60;;
58152;SDS011;43967;51.634;5.566;2022-09-09T15:59:27;6.72;;;2.00;;
58152;SDS011;43967;51.634;5.566;2022-09-09T16:04:29;8.02;;;1.70;;
58152;SDS011;43967;51.634;5.566;2022-09-09T16:09:31;7.40;;;1.93;;
58152;SDS011;43967;51.634;5.566;2022-09-09T16:19:50;8.10;;;1.75;;
58152;SDS011;43967;51.634;5.566;2022-09-09T16:24:51;7.97;;;1.80;;
58152;SDS011;43967;51.634;5.566;2022-09-09T16:29:54;6.93;;;1.70;;
58152;SDS011;43967;51.634;5.566;2022-09-09T16:34:55;9.90;;;1.60;;
58152;SDS011;43967;51.634;5.566;2022-09-09T16:39:56;17.13;;;3.95;;
58152;SDS011;43967;51.634;5.566;2022-09-09T16:45:05;12.97;;;2.90;;
58152;SDS011;43967;51.634;5.566;2022-09-09T17:06:14;11.50;;;2.42;;
58152;SDS011;43967;51.634;5.566;2022-09-09T17:22:09;9.57;;;2.00;;
58152;SDS011;43967;51.634;5.566;2022-09-09T17:27:15;12.75;;;2.40;;
58152;SDS011;43967;51.634;5.566;2022-09-09T17:37:37;11.20;;;2.07;;
58152;SDS011;43967;51.634;5.566;2022-09-09T18:09:04;15.27;;;2.57;;
